sensor_id;sensor_type;location;lat;lon;timestamp;P1;durP1;ratioP1;P2;durP2;ratioP2
11111;SDS011;5609;49.466;8.468;2024-03-22T00:02:22;9.17;;;7.63;;
11111;SDS011;5609;49.466;8.468;2024-03-22T00:04:49;9.70;;;7.40;;
11111;SDS011;5609;49.466;8.468;2024-03-22T00:07:16;12.70;;;7.17;;
11111;SDS011;5609;49.466;8.468;2024-03-22T00:09:42;9.50;;;7.37;;
11111;SDS011;5609;49.466;8.468;2024-03-22T00:12:08;9.90;;;7.50;;
11111;SDS011;5609;49.466;8.468;2024-03-22T00:14:35;9.90;;;7.60;;
11111;SDS011;5609;49.466;8.468;2024-03-22T00:17:01;10.30;;;7.70;;
11111;SDS011;5609;49.466;8.468;2024-03-22T00:19:27;9.40;;;7.83;;
11111;SDS011;5609;49.466;8.468;2024-03-22T00:21:58;10.93;;;7.90;;
11111;SDS011;5609;49.466;8.468;2024-03-22T00:24:23;12.13;;;8.07;;
11111;SDS011;5609;49.466;8.468;2024-03-22T00:26:50;11.37;;;7.43;;
11111;SDS011;5609;49.466;8.468;2024-03-22T00:29:16;10.27;;;7.63;;
11111;SDS011;5609;49.466;8.468;2024-03-22T00:31:43;10.73;;;7.73;;
11111;SDS011;5609;49.466;8.468;2024-03-22T00:34:09;8.90;;;7.57;;
11111;SDS011;5609;49.466;8.468;2024-03-22T00:36:36;13.43;;;8.03;;
11111;SDS011;5609;49.466;8.468;2024-03-22T00:39:03;9.23;;;7.40;;
11111;SDS011;5609;49.466;8.468;2024-03-22T00:41:30;10.67;;;7.93;;
11111;SDS011;5609;49.466;8.468;2024-03-22T00:43:56;10.07;;;8.43;;
11111;SDS011;5609;49.466;8.468;2024-03-22T00:46:24;11.13;;;8.67;;
11111;SDS011;5609;49.466;8.468;2024-03-22T00:48:49;9.47;;;8.47;;
11111;SDS011;5609;49.466;8.468;2024-03-22T00:51:16;10.07;;;8.33;;
11111;SDS011;5609;49.466;8.468;2024-03-22T00:53:43;11.33;;;8.20;;
11111;SDS011;5609;49.466;8.468;2024-03-22T00:56:10;8.90;;;8.00;;
11111;SDS011;5609;49.466;8.468;2024-03-22T00:58:37;10.13;;;8.33;;
11111;SDS011;5609;49.466;8.468;2024-03-22T01:01:03;10.67;;;8.33;;
11111;SDS011;5609;49.466;8.468;2024-03-22T01:03:30;9.53;;;8.00;;
11111;SDS011;5609;49.466;8.468;2024-03-22T01:05:56;9.00;;;8.10;;
11111;SDS011;5609;49.466;8.468;2024-03-22T01:08:23;9.90;;;8.53;;
11111;SDS011;5609;49.466;8.468;2024-03-22T01:10:49;10.63;;;9.03;;
11111;SDS011;5609;49.466;8.468;2024-03-22T01:13:17;10.80;;;8.70;;
11111;SDS011;5609;49.466;8.468;2024-03-22T01:15:43;10.00;;;8.30;;
11111;SDS011;5609;49.466;8.468;2024-03-22T01:18:11;9.17;;;7.93;;
11111;SDS011;5609;49.466;8.468;2024-03-22T01:20:36;9.57;;;8.50;;
11111;SDS011;5609;49.466;8.468;2024-03-22T01:23:03;10.10;;;8.13;;
11111;SDS011;5609;49.466;8.468;2024-03-22T01:25:29;9.07;;;8.00;;
11111;SDS011;5609;49.466;8.468;2024-03-22T01:27:58;11.17;;;8.77;;
11111;SDS011;5609;49.466;8.468;2024-03-22T01:30:27;9.70;;;8.53;;
11111;SDS011;5609;49.466;8.468;2024-03-22T01:32:55;11.57;;;8.50;;
11111;SDS011;5609;49.466;8.468;2024-03-22T01:35:21;9.37;;;8.37;;
11111;SDS011;5609;49.466;8.468;2024-03-22T01:37:48;9.83;;;8.23;;
11111;SDS011;5609;49.466;8.468;2024-03-22T01:40:14;10.53;;;8.40;;
11111;SDS011;5609;49.466;8.468;2024-03-22T01:42:41;9.87;;;8.37;;
11111;SDS011;5609;49.466;8.468;2024-03-22T01:45:07;9.67;;;8.67;;
11111;SDS011;5609;49.466;8.468;2024-03-22T01:47:43;9.40;;;8.40;;
11111;SDS011;5609;49.466;8.468;2024-03-22T01:50:09;9.93;;;8.30;;
11111;SDS011;5609;49.466;8.468;2024-03-22T01:52:38;9.30;;;8.20;;
11111;SDS011;5609;49.466;8.468;2024-03-22T01:55:06;9.47;;;8.33;;
11111;SDS011;5609;49.466;8.468;2024-03-22T01:57:33;10.60;;;7.57;;
11111;SDS011;5609;49.466;8.468;2024-03-22T02:00:00;9.73;;;7.83;;
11111;SDS011;5609;49.466;8.468;2024-03-22T02:02:26;8.50;;;7.60;;
11111;SDS011;5609;49.466;8.468;2024-03-22T02:04:54;10.83;;;7.83;;
11111;SDS011;5609;49.466;8.468;2024-03-22T02:07:22;10.13;;;8.00;;
11111;SDS011;5609;49.466;8.468;2024-03-22T02:09:48;8.80;;;7.90;;
11111;SDS011;5609;49.466;8.468;2024-03-22T02:12:15;9.33;;;8.23;;
11111;SDS011;5609;49.466;8.468;2024-03-22T02:14:41;9.07;;;7.60;;
11111;SDS011;5609;49.466;8.468;2024-03-22T02:17:09;10.17;;;7.83;;
11111;SDS011;5609;49.466;8.468;2024-03-22T02:19:34;8.10;;;7.30;;
11111;SDS011;5609;49.466;8.468;2024-03-22T02:22:03;8.97;;;7.37;;
11111;SDS011;5609;49.466;8.468;2024-03-22T02:24:30;8.17;;;7.13;;
11111;SDS011;5609;49.466;8.468;2024-03-22T02:26:57;10.90;;;7.70;;
11111;SDS011;5609;49.466;8.468;2024-03-22T02:29:24;10.57;;;7.53;;
11111;SDS011;5609;49.466;8.468;2024-03-22T02:31:49;8.57;;;7.53;;
11111;SDS011;5609;49.466;8.468;2024-03-22T02:34:16;9.47;;;7.63;;
11111;SDS011;5609;49.466;8.468;2024-03-22T02:36:42;8.67;;;7.77;;
11111;SDS011;5609;49.466;8.468;2024-03-22T02:39:09;9.10;;;7.43;;
11111;SDS011;5609;49.466;8.468;2024-03-22T02:41:36;8.27;;;7.40;;
11111;SDS011;5609;49.466;8.468;2024-03-22T02:44:03;8.73;;;7.13;;
11111;SDS011;5609;49.466;8.468;2024-03-22T02:46:28;8.37;;;7.17;;
11111;SDS011;5609;49.466;8.468;2024-03-22T02:48:56;8.67;;;7.63;;
11111;SDS011;5609;49.466;8.468;2024-03-22T02:51:23;9.00;;;8.10;;
11111;SDS011;5609;49.466;8.468;2024-03-22T02:53:50;9.17;;;7.13;;
11111;SDS011;5609;49.466;8.468;2024-03-22T02:56:15;8.83;;;7.93;;
11111;SDS011;5609;49.466;8.468;2024-03-22T02:58:44;8.67;;;7.73;;
11111;SDS011;5609;49.466;8.468;2024-03-22T03:01:09;8.33;;;7.50;;
11111;SDS011;5609;49.466;8.468;2024-03-22T03:03:36;8.13;;;7.33;;
11111;SDS011;5609;49.466;8.468;2024-03-22T03:06:02;11.27;;;7.43;;
11111;SDS011;5609;49.466;8.468;2024-03-22T03:08:29;9.73;;;7.87;;
11111;SDS011;5609;49.466;8.468;2024-03-22T03:10:54;10.27;;;7.83;;
11111;SDS011;5609;49.466;8.468;2024-03-22T03:13:22;8.33;;;7.53;;
11111;SDS011;5609;49.466;8.468;2024-03-22T03:15:50;8.83;;;7.93;;
11111;SDS011;5609;49.466;8.468;2024-03-22T03:18:17;8.73;;;7.67;;
11111;SDS011;5609;49.466;8.468;2024-03-22T03:20:43;9.30;;;7.50;;
11111;SDS011;5609;49.466;8.468;2024-03-22T03:23:09;9.20;;;7.73;;
11111;SDS011;5609;49.466;8.468;2024-03-22T03:25:35;9.83;;;7.73;;
11111;SDS011;5609;49.466;8.468;2024-03-22T03:28:02;9.70;;;8.63;;
11111;SDS011;5609;49.466;8.468;2024-03-22T03:30:28;9.70;;;8.47;;
11111;SDS011;5609;49.466;8.468;2024-03-22T03:32:56;11.30;;;8.47;;
11111;SDS011;5609;49.466;8.468;2024-03-22T03:35:22;11.93;;;9.03;;
11111;SDS011;5609;49.466;8.468;2024-03-22T03:37:48;9.83;;;8.03;;
11111;SDS011;5609;49.466;8.468;2024-03-22T03:40:14;10.33;;;8.70;;
11111;SDS011;5609;49.466;8.468;2024-03-22T03:42:41;11.07;;;9.93;;
11111;SDS011;5609;49.466;8.468;2024-03-22T03:45:07;10.30;;;9.00;;
11111;SDS011;5609;49.466;8.468;2024-03-22T03:47:34;11.30;;;8.80;;
11111;SDS011;5609;49.466;8.468;2024-03-22T03:50:01;10.00;;;8.90;;
11111;SDS011;5609;49.466;8.468;2024-03-22T03:52:28;10.10;;;8.93;;
11111;SDS011;5609;49.466;8.468;2024-03-22T03:54:54;11.43;;;8.60;;
11111;SDS011;5609;49.466;8.468;2024-03-22T03:57:22;10.63;;;9.53;;
11111;SDS011;5609;49.466;8.468;2024-03-22T03:59:48;10.43;;;9.33;;
11111;SDS011;5609;49.466;8.468;2024-03-22T04:02:14;10.03;;;8.93;;
11111;SDS011;5609;49.466;8.468;2024-03-22T04:04:40;10.83;;;9.10;;
11111;SDS011;5609;49.466;8.468;2024-03-22T04:07:08;11.03;;;9.17;;
11111;SDS011;5609;49.466;8.468;2024-03-22T04:09:35;10.07;;;9.07;;
11111;SDS011;5609;49.466;8.468;2024-03-22T04:12:01;10.70;;;9.47;;
11111;SDS011;5609;49.466;8.468;2024-03-22T04:14:27;10.10;;;9.03;;
11111;SDS011;5609;49.466;8.468;2024-03-22T04:16:53;10.63;;;9.57;;
11111;SDS011;5609;49.466;8.468;2024-03-22T04:19:21;10.80;;;9.27;;
11111;SDS011;5609;49.466;8.468;2024-03-22T04:21:46;10.23;;;9.23;;
11111;SDS011;5609;49.466;8.468;2024-03-22T04:24:15;10.33;;;9.00;;
11111;SDS011;5609;49.466;8.468;2024-03-22T04:26:41;13.87;;;9.37;;
11111;SDS011;5609;49.466;8.468;2024-03-22T04:29:08;10.80;;;9.23;;
11111;SDS011;5609;49.466;8.468;2024-03-22T04:31:34;10.30;;;9.30;;
11111;SDS011;5609;49.466;8.468;2024-03-22T04:34:00;10.97;;;9.57;;
11111;SDS011;5609;49.466;8.468;2024-03-22T04:36:27;11.27;;;9.23;;
11111;SDS011;5609;49.466;8.468;2024-03-22T04:38:54;12.30;;;10.23;;
11111;SDS011;5609;49.466;8.468;2024-03-22T04:41:23;13.23;;;9.97;;
11111;SDS011;5609;49.466;8.468;2024-03-22T04:43:49;10.50;;;9.40;;
11111;SDS011;5609;49.466;8.468;2024-03-22T04:46:16;12.63;;;9.80;;
11111;SDS011;5609;49.466;8.468;2024-03-22T04:48:43;11.00;;;9.90;;
11111;SDS011;5609;49.466;8.468;2024-03-22T04:51:08;10.77;;;9.50;;
11111;SDS011;5609;49.466;8.468;2024-03-22T04:53:35;10.87;;;9.70;;
11111;SDS011;5609;49.466;8.468;2024-03-22T04:56:01;10.70;;;9.27;;
11111;SDS011;5609;49.466;8.468;2024-03-22T04:58:29;11.63;;;9.27;;
11111;SDS011;5609;49.466;8.468;2024-03-22T05:00:56;11.00;;;9.27;;
11111;SDS011;5609;49.466;8.468;2024-03-22T05:03:23;10.80;;;9.70;;
11111;SDS011;5609;49.466;8.468;2024-03-22T05:05:49;11.37;;;9.37;;
11111;SDS011;5609;49.466;8.468;2024-03-22T05:08:17;11.23;;;9.90;;
11111;SDS011;5609;49.466;8.468;2024-03-22T05:10:42;11.03;;;9.37;;
11111;SDS011;5609;49.466;8.468;2024-03-22T05:13:09;10.83;;;9.73;;
11111;SDS011;5609;49.466;8.468;2024-03-22T05:15:37;10.47;;;9.37;;
11111;SDS011;5609;49.466;8.468;2024-03-22T05:18:04;12.53;;;10.43;;
11111;SDS011;5609;49.466;8.468;2024-03-22T05:20:30;10.87;;;9.77;;
11111;SDS011;5609;49.466;8.468;2024-03-22T05:22:58;11.33;;;9.57;;
11111;SDS011;5609;49.466;8.468;2024-03-22T05:25:24;10.70;;;9.60;;
11111;SDS011;5609;49.466;8.468;2024-03-22T05:27:53;9.87;;;8.37;;
11111;SDS011;5609;49.466;8.468;2024-03-22T05:30:19;9.93;;;8.93;;
11111;SDS011;5609;49.466;8.468;2024-03-22T05:32:47;9.80;;;8.80;;
11111;SDS011;5609;49.466;8.468;2024-03-22T05:35:14;9.30;;;8.40;;
11111;SDS011;5609;49.466;8.468;2024-03-22T05:37:41;10.13;;;9.00;;
11111;SDS011;5609;49.466;8.468;2024-03-22T05:40:07;10.73;;;9.00;;
11111;SDS011;5609;49.466;8.468;2024-03-22T05:42:35;10.33;;;9.13;;
11111;SDS011;5609;49.466;8.468;2024-03-22T05:45:00;10.03;;;8.97;;
11111;SDS011;5609;49.466;8.468;2024-03-22T05:47:27;10.40;;;9.30;;
11111;SDS011;5609;49.466;8.468;2024-03-22T05:49:54;9.80;;;8.70;;
11111;SDS011;5609;49.466;8.468;2024-03-22T05:52:21;10.47;;;8.80;;
11111;SDS011;5609;49.466;8.468;2024-03-22T05:54:47;10.80;;;9.03;;
11111;SDS011;5609;49.466;8.468;2024-03-22T05:57:13;10.17;;;9.13;;
11111;SDS011;5609;49.466;8.468;2024-03-22T05:59:39;10.87;;;9.00;;
11111;SDS011;5609;49.466;8.468;2024-03-22T06:02:06;12.60;;;8.90;;
11111;SDS011;5609;49.466;8.468;2024-03-22T06:04:32;9.73;;;8.70;;
11111;SDS011;5609;49.466;8.468;2024-03-22T06:07:05;10.53;;;9.17;;
11111;SDS011;5609;49.466;8.468;2024-03-22T06:09:31;10.30;;;9.20;;
11111;SDS011;5609;49.466;8.468;2024-03-22T06:12:02;10.17;;;8.70;;
11111;SDS011;5609;49.466;8.468;2024-03-22T06:14:29;9.80;;;8.77;;
11111;SDS011;5609;49.466;8.468;2024-03-22T06:16:55;10.97;;;9.20;;
11111;SDS011;5609;49.466;8.468;2024-03-22T06:19:22;10.60;;;8.90;;
11111;SDS011;5609;49.466;8.468;2024-03-22T06:21:49;10.50;;;9.50;;
11111;SDS011;5609;49.466;8.468;2024-03-22T06:24:16;9.93;;;8.93;;
11111;SDS011;5609;49.466;8.468;2024-03-22T06:26:43;10.77;;;9.73;;
11111;SDS011;5609;49.466;8.468;2024-03-22T06:29:09;9.93;;;8.93;;
11111;SDS011;5609;49.466;8.468;2024-03-22T06:31:36;10.77;;;9.60;;
11111;SDS011;5609;49.466;8.468;2024-03-22T06:34:02;10.07;;;9.17;;
11111;SDS011;5609;49.466;8.468;2024-03-22T06:36:29;11.77;;;9.27;;
11111;SDS011;5609;49.466;8.468;2024-03-22T06:38:57;10.80;;;9.60;;
11111;SDS011;5609;49.466;8.468;2024-03-22T06:41:27;10.90;;;9.80;;
11111;SDS011;5609;49.466;8.468;2024-03-22T06:43:53;11.07;;;9.97;;
11111;SDS011;5609;49.466;8.468;2024-03-22T06:46:19;11.70;;;9.43;;
11111;SDS011;5609;49.466;8.468;2024-03-22T06:48:45;9.80;;;8.83;;
11111;SDS011;5609;49.466;8.468;2024-03-22T06:51:12;10.53;;;9.47;;
11111;SDS011;5609;49.466;8.468;2024-03-22T06:53:39;10.77;;;9.40;;
11111;SDS011;5609;49.466;8.468;2024-03-22T06:56:06;10.43;;;9.43;;
11111;SDS011;5609;49.466;8.468;2024-03-22T06:58:35;10.17;;;9.17;;
11111;SDS011;5609;49.466;8.468;2024-03-22T07:01:02;10.50;;;9.10;;
11111;SDS011;5609;49.466;8.468;2024-03-22T07:03:28;9.93;;;8.93;;
11111;SDS011;5609;49.466;8.468;2024-03-22T07:05:55;10.37;;;9.00;;
11111;SDS011;5609;49.466;8.468;2024-03-22T07:08:20;10.20;;;9.20;;
11111;SDS011;5609;49.466;8.468;2024-03-22T07:10:47;9.87;;;8.83;;
11111;SDS011;5609;49.466;8.468;2024-03-22T07:13:13;9.70;;;8.80;;
11111;SDS011;5609;49.466;8.468;2024-03-22T07:15:43;9.27;;;8.37;;
11111;SDS011;5609;49.466;8.468;2024-03-22T07:18:10;9.83;;;8.83;;
11111;SDS011;5609;49.466;8.468;2024-03-22T07:20:37;9.10;;;8.20;;
11111;SDS011;5609;49.466;8.468;2024-03-22T07:23:03;9.33;;;8.03;;
11111;SDS011;5609;49.466;8.468;2024-03-22T07:25:39;8.50;;;7.53;;
11111;SDS011;5609;49.466;8.468;2024-03-22T07:28:07;9.00;;;7.60;;
11111;SDS011;5609;49.466;8.468;2024-03-22T07:30:34;8.13;;;7.33;;
11111;SDS011;5609;49.466;8.468;2024-03-22T07:33:02;8.57;;;7.70;;
11111;SDS011;5609;49.466;8.468;2024-03-22T07:35:29;8.97;;;8.07;;
11111;SDS011;5609;49.466;8.468;2024-03-22T07:37:56;8.70;;;7.87;;
11111;SDS011;5609;49.466;8.468;2024-03-22T07:40:22;8.50;;;7.70;;
11111;SDS011;5609;49.466;8.468;2024-03-22T07:42:48;9.23;;;7.90;;
11111;SDS011;5609;49.466;8.468;2024-03-22T07:45:17;8.70;;;7.57;;
11111;SDS011;5609;49.466;8.468;2024-03-22T07:47:43;8.87;;;7.97;;
11111;SDS011;5609;49.466;8.468;2024-03-22T07:50:11;8.73;;;7.93;;
11111;SDS011;5609;49.466;8.468;2024-03-22T07:52:37;9.20;;;8.17;;
11111;SDS011;5609;49.466;8.468;2024-03-22T07:55:05;9.27;;;7.23;;
11111;SDS011;5609;49.466;8.468;2024-03-22T07:57:31;8.63;;;7.83;;
11111;SDS011;5609;49.466;8.468;2024-03-22T07:59:58;8.77;;;7.97;;
11111;SDS011;5609;49.466;8.468;2024-03-22T08:02:24;9.17;;;8.27;;
11111;SDS011;5609;49.466;8.468;2024-03-22T08:04:51;9.00;;;8.10;;
11111;SDS011;5609;49.466;8.468;2024-03-22T08:07:18;9.57;;;8.23;;
11111;SDS011;5609;49.466;8.468;2024-03-22T08:09:47;10.00;;;7.97;;
11111;SDS011;5609;49.466;8.468;2024-03-22T08:12:13;9.10;;;8.07;;
11111;SDS011;5609;49.466;8.468;2024-03-22T08:14:40;9.53;;;8.10;;
11111;SDS011;5609;49.466;8.468;2024-03-22T08:17:06;9.40;;;8.40;;
11111;SDS011;5609;49.466;8.468;2024-03-22T08:19:34;9.17;;;8.23;;
11111;SDS011;5609;49.466;8.468;2024-03-22T08:22:00;8.97;;;8.13;;
11111;SDS011;5609;49.466;8.468;2024-03-22T08:24:28;9.40;;;8.40;;
11111;SDS011;5609;49.466;8.468;2024-03-22T08:26:54;9.20;;;8.23;;
11111;SDS011;5609;49.466;8.468;2024-03-22T08:29:21;8.43;;;7.67;;
11111;SDS011;5609;49.466;8.468;2024-03-22T08:31:48;10.07;;;7.90;;
11111;SDS011;5609;49.466;8.468;2024-03-22T08:34:15;8.87;;;7.77;;
11111;SDS011;5609;49.466;8.468;2024-03-22T08:36:41;9.43;;;8.30;;
11111;SDS011;5609;49.466;8.468;2024-03-22T08:39:07;8.57;;;7.67;;
11111;SDS011;5609;49.466;8.468;2024-03-22T08:41:36;8.27;;;7.40;;
11111;SDS011;5609;49.466;8.468;2024-03-22T08:44:04;8.10;;;7.30;;
11111;SDS011;5609;49.466;8.468;2024-03-22T08:46:29;8.87;;;7.97;;
11111;SDS011;5609;49.466;8.468;2024-03-22T08:48:57;8.27;;;7.47;;
11111;SDS011;5609;49.466;8.468;2024-03-22T08:51:23;8.70;;;7.90;;
11111;SDS011;5609;49.466;8.468;2024-03-22T08:53:50;8.73;;;7.83;;
11111;SDS011;5609;49.466;8.468;2024-03-22T08:56:15;8.23;;;7.43;;
11111;SDS011;5609;49.466;8.468;2024-03-22T08:58:44;8.07;;;7.27;;
11111;SDS011;5609;49.466;8.468;2024-03-22T09:01:09;7.70;;;7.00;;
11111;SDS011;5609;49.466;8.468;2024-03-22T09:03:36;7.77;;;6.97;;
11111;SDS011;5609;49.466;8.468;2024-03-22T09:06:04;7.90;;;7.20;;
11111;SDS011;5609;49.466;8.468;2024-03-22T09:08:31;9.10;;;7.63;;
11111;SDS011;5609;49.466;8.468;2024-03-22T09:10:58;7.53;;;6.83;;
11111;SDS011;5609;49.466;8.468;2024-03-22T09:13:27;7.90;;;7.20;;
11111;SDS011;5609;49.466;8.468;2024-03-22T09:15:57;8.13;;;7.33;;
11111;SDS011;5609;49.466;8.468;2024-03-22T09:18:25;7.67;;;6.97;;
11111;SDS011;5609;49.466;8.468;2024-03-22T09:20:51;9.23;;;7.57;;
11111;SDS011;5609;49.466;8.468;2024-03-22T09:23:19;8.20;;;7.40;;
11111;SDS011;5609;49.466;8.468;2024-03-22T09:25:45;8.33;;;6.90;;
11111;SDS011;5609;49.466;8.468;2024-03-22T09:28:12;8.23;;;7.43;;
11111;SDS011;5609;49.466;8.468;2024-03-22T09:30:38;9.37;;;7.37;;
11111;SDS011;5609;49.466;8.468;2024-03-22T09:33:08;7.83;;;7.13;;
11111;SDS011;5609;49.466;8.468;2024-03-22T09:35:34;7.57;;;6.80;;
11111;SDS011;5609;49.466;8.468;2024-03-22T09:38:01;7.57;;;6.87;;
11111;SDS011;5609;49.466;8.468;2024-03-22T09:40:27;8.73;;;7.00;;
11111;SDS011;5609;49.466;8.468;2024-03-22T09:42:54;8.43;;;7.20;;
11111;SDS011;5609;49.466;8.468;2024-03-22T09:45:27;8.00;;;6.70;;
11111;SDS011;5609;49.466;8.468;2024-03-22T09:47:54;8.67;;;6.60;;
11111;SDS011;5609;49.466;8.468;2024-03-22T09:50:23;6.93;;;6.23;;
11111;SDS011;5609;49.466;8.468;2024-03-22T09:52:51;7.37;;;6.67;;
11111;SDS011;5609;49.466;8.468;2024-03-22T09:55:18;7.10;;;6.40;;
11111;SDS011;5609;49.466;8.468;2024-03-22T09:57:48;7.40;;;6.70;;
11111;SDS011;5609;49.466;8.468;2024-03-22T10:00:15;6.97;;;6.27;;
11111;SDS011;5609;49.466;8.468;2024-03-22T10:02:45;7.07;;;6.37;;
11111;SDS011;5609;49.466;8.468;2024-03-22T10:05:12;9.17;;;6.47;;
11111;SDS011;5609;49.466;8.468;2024-03-22T10:07:41;7.33;;;6.53;;
11111;SDS011;5609;49.466;8.468;2024-03-22T10:10:08;6.80;;;5.87;;
11111;SDS011;5609;49.466;8.468;2024-03-22T10:12:35;9.60;;;6.20;;
11111;SDS011;5609;49.466;8.468;2024-03-22T10:15:01;7.07;;;6.00;;
11111;SDS011;5609;49.466;8.468;2024-03-22T10:17:27;7.07;;;6.10;;
11111;SDS011;5609;49.466;8.468;2024-03-22T10:19:54;7.23;;;6.03;;
11111;SDS011;5609;49.466;8.468;2024-03-22T10:22:20;6.57;;;5.60;;
11111;SDS011;5609;49.466;8.468;2024-03-22T10:24:48;7.70;;;6.43;;
11111;SDS011;5609;49.466;8.468;2024-03-22T10:27:15;6.67;;;6.07;;
11111;SDS011;5609;49.466;8.468;2024-03-22T10:29:43;8.00;;;5.93;;
11111;SDS011;5609;49.466;8.468;2024-03-22T10:32:10;8.10;;;6.03;;
11111;SDS011;5609;49.466;8.468;2024-03-22T10:34:36;6.73;;;6.00;;
11111;SDS011;5609;49.466;8.468;2024-03-22T10:37:04;8.20;;;5.90;;
11111;SDS011;5609;49.466;8.468;2024-03-22T10:39:31;9.23;;;6.10;;
11111;SDS011;5609;49.466;8.468;2024-03-22T10:42:00;7.20;;;6.10;;
11111;SDS011;5609;49.466;8.468;2024-03-22T10:44:26;6.97;;;6.27;;
11111;SDS011;5609;49.466;8.468;2024-03-22T10:46:53;6.87;;;5.77;;
11111;SDS011;5609;49.466;8.468;2024-03-22T10:49:24;8.53;;;5.60;;
11111;SDS011;5609;49.466;8.468;2024-03-22T10:51:54;6.03;;;5.43;;
11111;SDS011;5609;49.466;8.468;2024-03-22T10:54:24;6.70;;;5.97;;
11111;SDS011;5609;49.466;8.468;2024-03-22T10:56:53;5.20;;;4.70;;
11111;SDS011;5609;49.466;8.468;2024-03-22T10:59:21;4.60;;;4.20;;
11111;SDS011;5609;49.466;8.468;2024-03-22T11:01:48;4.30;;;3.90;;
11111;SDS011;5609;49.466;8.468;2024-03-22T11:04:15;5.50;;;3.93;;
11111;SDS011;5609;49.466;8.468;2024-03-22T11:06:47;4.70;;;4.17;;
11111;SDS011;5609;49.466;8.468;2024-03-22T11:09:17;4.83;;;4.20;;
11111;SDS011;5609;49.466;8.468;2024-03-22T11:11:48;4.33;;;3.77;;
11111;SDS011;5609;49.466;8.468;2024-03-22T11:14:16;4.63;;;3.70;;
11111;SDS011;5609;49.466;8.468;2024-03-22T11:16:48;5.50;;;4.10;;
11111;SDS011;5609;49.466;8.468;2024-03-22T11:19:15;5.13;;;3.70;;
11111;SDS011;5609;49.466;8.468;2024-03-22T11:21:42;6.37;;;3.90;;
11111;SDS011;5609;49.466;8.468;2024-03-22T11:24:08;4.20;;;3.57;;
11111;SDS011;5609;49.466;8.468;2024-03-22T11:26:36;4.83;;;3.67;;
11111;SDS011;5609;49.466;8.468;2024-03-22T11:29:02;4.50;;;3.40;;
11111;SDS011;5609;49.466;8.468;2024-03-22T11:31:29;3.53;;;2.97;;
11111;SDS011;5609;49.466;8.468;2024-03-22T11:33:58;3.83;;;2.93;;
11111;SDS011;5609;49.466;8.468;2024-03-22T11:36:26;4.07;;;2.60;;
11111;SDS011;5609;49.466;8.468;2024-03-22T11:38:52;3.43;;;2.60;;
11111;SDS011;5609;49.466;8.468;2024-03-22T11:41:21;3.40;;;2.77;;
11111;SDS011;5609;49.466;8.468;2024-03-22T11:43:50;2.80;;;2.50;;
11111;SDS011;5609;49.466;8.468;2024-03-22T11:46:17;2.70;;;2.50;;
11111;SDS011;5609;49.466;8.468;2024-03-22T11:48:49;3.37;;;2.50;;
11111;SDS011;5609;49.466;8.468;2024-03-22T11:51:18;3.40;;;2.40;;
11111;SDS011;5609;49.466;8.468;2024-03-22T11:53:48;4.07;;;2.40;;
11111;SDS011;5609;49.466;8.468;2024-03-22T11:56:18;3.80;;;2.07;;
11111;SDS011;5609;49.466;8.468;2024-03-22T11:58:45;2.40;;;2.20;;
11111;SDS011;5609;49.466;8.468;2024-03-22T12:01:13;2.50;;;2.30;;
11111;SDS011;5609;49.466;8.468;2024-03-22T12:03:43;3.10;;;2.53;;
11111;SDS011;5609;49.466;8.468;2024-03-22T12:06:09;3.50;;;2.30;;
11111;SDS011;5609;49.466;8.468;2024-03-22T12:08:37;3.33;;;2.50;;
11111;SDS011;5609;49.466;8.468;2024-03-22T12:11:06;3.10;;;2.20;;
11111;SDS011;5609;49.466;8.468;2024-03-22T12:13:32;4.00;;;2.90;;
11111;SDS011;5609;49.466;8.468;2024-03-22T12:15:59;2.73;;;2.13;;
11111;SDS011;5609;49.466;8.468;2024-03-22T12:18:25;3.07;;;2.60;;
11111;SDS011;5609;49.466;8.468;2024-03-22T12:20:53;3.13;;;2.63;;
11111;SDS011;5609;49.466;8.468;2024-03-22T12:23:18;3.17;;;2.87;;
11111;SDS011;5609;49.466;8.468;2024-03-22T12:25:47;3.17;;;2.87;;
11111;SDS011;5609;49.466;8.468;2024-03-22T12:28:13;3.77;;;2.37;;
11111;SDS011;5609;49.466;8.468;2024-03-22T12:30:40;3.57;;;2.57;;
11111;SDS011;5609;49.466;8.468;2024-03-22T12:33:06;3.93;;;2.73;;
11111;SDS011;5609;49.466;8.468;2024-03-22T12:35:35;3.23;;;2.40;;
11111;SDS011;5609;49.466;8.468;2024-03-22T12:38:01;5.57;;;3.30;;
11111;SDS011;5609;49.466;8.468;2024-03-22T12:40:28;3.33;;;2.67;;
11111;SDS011;5609;49.466;8.468;2024-03-22T12:42:56;3.83;;;2.63;;
11111;SDS011;5609;49.466;8.468;2024-03-22T12:45:23;4.40;;;2.77;;
11111;SDS011;5609;49.466;8.468;2024-03-22T12:47:48;5.20;;;3.10;;
11111;SDS011;5609;49.466;8.468;2024-03-22T12:50:15;4.20;;;3.07;;
11111;SDS011;5609;49.466;8.468;2024-03-22T12:52:41;4.63;;;2.83;;
11111;SDS011;5609;49.466;8.468;2024-03-22T12:55:09;3.87;;;3.00;;
11111;SDS011;5609;49.466;8.468;2024-03-22T12:57:35;3.73;;;3.00;;
11111;SDS011;5609;49.466;8.468;2024-03-22T13:00:07;3.80;;;3.00;;
11111;SDS011;5609;49.466;8.468;2024-03-22T13:02:37;4.63;;;3.03;;
11111;SDS011;5609;49.466;8.468;2024-03-22T13:05:05;4.00;;;2.93;;
11111;SDS011;5609;49.466;8.468;2024-03-22T13:07:32;5.50;;;3.63;;
11111;SDS011;5609;49.466;8.468;2024-03-22T13:10:00;5.03;;;3.27;;
11111;SDS011;5609;49.466;8.468;2024-03-22T13:12:26;4.10;;;2.77;;
11111;SDS011;5609;49.466;8.468;2024-03-22T13:14:56;4.23;;;3.00;;
11111;SDS011;5609;49.466;8.468;2024-03-22T13:17:23;3.60;;;2.93;;
11111;SDS011;5609;49.466;8.468;2024-03-22T13:19:49;4.40;;;3.00;;
11111;SDS011;5609;49.466;8.468;2024-03-22T13:22:16;7.27;;;3.67;;
11111;SDS011;5609;49.466;8.468;2024-03-22T13:24:43;3.97;;;3.00;;
11111;SDS011;5609;49.466;8.468;2024-03-22T13:27:09;3.43;;;3.13;;
11111;SDS011;5609;49.466;8.468;2024-03-22T13:29:36;3.17;;;2.67;;
11111;SDS011;5609;49.466;8.468;2024-03-22T13:32:01;3.37;;;2.90;;
11111;SDS011;5609;49.466;8.468;2024-03-22T13:34:32;3.80;;;3.40;;
11111;SDS011;5609;49.466;8.468;2024-03-22T13:36:58;3.33;;;2.90;;
11111;SDS011;5609;49.466;8.468;2024-03-22T13:39:24;3.20;;;2.60;;
11111;SDS011;5609;49.466;8.468;2024-03-22T13:41:50;4.23;;;3.13;;
11111;SDS011;5609;49.466;8.468;2024-03-22T13:44:17;4.63;;;2.90;;
11111;SDS011;5609;49.466;8.468;2024-03-22T13:46:43;5.00;;;3.13;;
11111;SDS011;5609;49.466;8.468;2024-03-22T13:49:12;4.00;;;2.73;;
11111;SDS011;5609;49.466;8.468;2024-03-22T13:51:41;6.27;;;3.73;;
11111;SDS011;5609;49.466;8.468;2024-03-22T13:54:09;3.93;;;3.30;;
11111;SDS011;5609;49.466;8.468;2024-03-22T13:56:35;5.50;;;3.40;;
11111;SDS011;5609;49.466;8.468;2024-03-22T13:59:04;4.80;;;3.00;;
11111;SDS011;5609;49.466;8.468;2024-03-22T14:01:30;4.33;;;2.80;;
11111;SDS011;5609;49.466;8.468;2024-03-22T14:03:57;4.20;;;3.00;;
11111;SDS011;5609;49.466;8.468;2024-03-22T14:06:22;5.77;;;3.10;;
11111;SDS011;5609;49.466;8.468;2024-03-22T14:08:50;4.17;;;3.00;;
11111;SDS011;5609;49.466;8.468;2024-03-22T14:11:25;5.10;;;3.13;;
11111;SDS011;5609;49.466;8.468;2024-03-22T14:13:52;5.33;;;3.00;;
11111;SDS011;5609;49.466;8.468;2024-03-22T14:16:18;3.60;;;3.00;;
11111;SDS011;5609;49.466;8.468;2024-03-22T14:18:46;4.40;;;3.27;;
11111;SDS011;5609;49.466;8.468;2024-03-22T14:21:14;4.37;;;2.93;;
11111;SDS011;5609;49.466;8.468;2024-03-22T14:23:44;4.60;;;3.63;;
11111;SDS011;5609;49.466;8.468;2024-03-22T14:26:12;4.57;;;3.50;;
11111;SDS011;5609;49.466;8.468;2024-03-22T14:28:38;3.63;;;3.10;;
11111;SDS011;5609;49.466;8.468;2024-03-22T14:31:05;5.27;;;3.20;;
11111;SDS011;5609;49.466;8.468;2024-03-22T14:33:37;4.17;;;3.50;;
11111;SDS011;5609;49.466;8.468;2024-03-22T14:36:05;4.60;;;3.47;;
11111;SDS011;5609;49.466;8.468;2024-03-22T14:38:32;4.83;;;3.50;;
11111;SDS011;5609;49.466;8.468;2024-03-22T14:41:00;4.53;;;3.60;;
11111;SDS011;5609;49.466;8.468;2024-03-22T14:43:27;4.73;;;3.77;;
11111;SDS011;5609;49.466;8.468;2024-03-22T14:45:58;3.90;;;3.37;;
11111;SDS011;5609;49.466;8.468;2024-03-22T14:48:25;5.60;;;3.60;;
11111;SDS011;5609;49.466;8.468;2024-03-22T14:50:54;6.07;;;3.70;;
11111;SDS011;5609;49.466;8.468;2024-03-22T14:53:21;4.43;;;3.43;;
11111;SDS011;5609;49.466;8.468;2024-03-22T14:55:53;3.87;;;3.40;;
11111;SDS011;5609;49.466;8.468;2024-03-22T14:58:23;5.60;;;3.63;;